createdAt,value
2019-06-08T00:00:26.361Z,22.30
2019-06-08T00:01:29.268Z,21.47
2019-06-08T00:02:32.168Z,21.23
2019-06-08T00:03:35.086Z,20.60
2019-06-08T00:04:38.017Z,19.87
2019-06-08T00:05:40.944Z,20.27
2019-06-08T00:06:43.853Z,19.70
2019-06-08T00:07:47.133Z,20.53
2019-06-08T00:08:50.045Z,22.97
2019-06-08T00:09:53.009Z,21.13
2019-06-08T00:10:55.885Z,23.50
2019-06-08T00:12:00.613Z,21.60
2019-06-08T00:13:03.578Z,23.27
2019-06-08T00:14:06.501Z,22.20
2019-06-08T00:15:09.529Z,21.20
2019-06-08T00:16:13.207Z,21.57
2019-06-08T00:17:31.527Z,24.33
2019-06-08T00:18:21.558Z,22.13
2019-06-08T00:19:24.477Z,22.60
2019-06-08T00:20:27.426Z,21.37
2019-06-08T00:21:30.317Z,20.90
2019-06-08T00:22:33.245Z,22.73
2019-06-08T00:23:36.113Z,23.00
2019-06-08T00:24:39.064Z,23.57
2019-06-08T00:25:41.977Z,22.10
2019-06-08T00:26:44.893Z,22.67
2019-06-08T00:27:47.795Z,22.67
2019-06-08T00:28:50.698Z,22.37
2019-06-08T00:29:53.591Z,23.57
2019-06-08T00:30:56.546Z,24.27
2019-06-08T00:31:59.429Z,22.17
2019-06-08T00:33:02.350Z,23.60
2019-06-08T00:34:05.250Z,22.03
2019-06-08T00:35:08.150Z,22.17
2019-06-08T00:36:11.069Z,21.20
2019-06-08T00:37:14.585Z,20.70
2019-06-08T00:38:18.800Z,21.40
2019-06-08T00:39:22.920Z,19.83
2019-06-08T00:40:25.890Z,20.83
2019-06-08T00:41:28.782Z,22.70
2019-06-08T00:42:31.693Z,22.17
2019-06-08T00:43:34.621Z,21.80
2019-06-08T00:44:37.545Z,24.20
2019-06-08T00:45:40.441Z,21.97
2019-06-08T00:46:43.381Z,22.60
2019-06-08T00:47:48.145Z,22.70
2019-06-08T00:48:51.009Z,23.23
2019-06-08T00:49:53.914Z,23.50
2019-06-08T00:50:56.824Z,22.67
2019-06-08T00:51:59.709Z,21.53
2019-06-08T00:53:02.641Z,19.50
2019-06-08T00:54:05.564Z,19.30
2019-06-08T00:55:08.589Z,19.67
2019-06-08T00:56:11.560Z,20.37
2019-06-08T00:57:14.473Z,19.87
2019-06-08T00:58:18.069Z,20.83
2019-06-08T00:59:21.905Z,19.80
2019-06-08T01:00:26.550Z,19.63
2019-06-08T01:01:30.872Z,21.27
2019-06-08T01:02:33.925Z,20.27
2019-06-08T01:03:36.872Z,21.20
2019-06-08T01:04:39.808Z,19.97
2019-06-08T01:05:42.733Z,20.50
2019-06-08T01:06:46.622Z,19.33
2019-06-08T01:07:49.561Z,19.63
2019-06-08T01:08:52.524Z,21.33
2019-06-08T01:09:55.441Z,20.43
2019-06-08T01:10:58.324Z,20.47
2019-06-08T01:12:01.275Z,21.07
2019-06-08T01:13:06.023Z,21.37
2019-06-08T01:14:09.031Z,21.17
2019-06-08T01:15:12.902Z,22.00
2019-06-08T01:16:15.782Z,21.80
2019-06-08T01:17:19.300Z,24.03
2019-06-08T01:18:22.915Z,22.27
2019-06-08T01:19:27.496Z,23.80
2019-06-08T01:20:30.421Z,22.70
2019-06-08T01:21:33.325Z,23.23
2019-06-08T01:22:36.221Z,22.37
2019-06-08T01:23:39.134Z,23.20
2019-06-08T01:24:42.250Z,23.07
2019-06-08T01:25:45.234Z,21.87
2019-06-08T01:26:48.109Z,21.70
2019-06-08T01:27:51.013Z,19.97
2019-06-08T01:28:53.940Z,20.83
2019-06-08T01:29:56.841Z,20.50
2019-06-08T01:30:59.767Z,19.70
2019-06-08T01:32:02.681Z,19.43
2019-06-08T01:33:05.607Z,19.62
2019-06-08T01:34:08.491Z,17.97
2019-06-08T01:35:11.708Z,19.50
2019-06-08T01:36:14.673Z,19.42
2019-06-08T01:37:17.593Z,18.40
2019-06-08T01:38:21.037Z,18.57
2019-06-08T01:39:25.053Z,18.87
2019-06-08T01:40:29.449Z,19.55
2019-06-08T01:41:33.517Z,17.90
2019-06-08T01:42:36.409Z,18.47
2019-06-08T01:43:39.337Z,18.17
2019-06-08T01:44:42.257Z,19.07
2019-06-08T01:45:45.184Z,20.23
2019-06-08T01:46:48.113Z,21.40
2019-06-08T01:47:51.063Z,21.17
2019-06-08T01:48:53.961Z,20.62
2019-06-08T01:49:56.856Z,19.87
2019-06-08T01:50:59.781Z,19.60
2019-06-08T01:52:02.716Z,21.20
2019-06-08T01:53:05.724Z,21.15
2019-06-08T01:54:08.688Z,20.07
2019-06-08T01:55:11.576Z,20.50
2019-06-08T01:56:14.481Z,20.53
2019-06-08T01:57:17.446Z,22.60
2019-06-08T01:58:20.389Z,19.92
2019-06-08T01:59:23.377Z,22.52
2019-06-08T02:00:35.038Z,22.10
2019-06-08T02:01:31.975Z,20.45
2019-06-08T02:02:34.886Z,21.87
2019-06-08T02:03:37.826Z,21.83
2019-06-08T02:04:40.760Z,20.77
2019-06-08T02:05:43.717Z,27.35
2019-06-08T02:06:46.637Z,21.00
2019-06-08T02:07:49.790Z,20.52
2019-06-08T02:08:53.058Z,21.70
2019-06-08T02:09:56.006Z,21.90
2019-06-08T02:10:58.905Z,21.77
2019-06-08T02:12:01.793Z,22.00
2019-06-08T02:13:08.286Z,21.03
2019-06-08T02:14:09.398Z,22.40
2019-06-08T02:15:14.284Z,21.80
2019-06-08T02:16:17.187Z,20.17
2019-06-08T02:17:20.265Z,19.37
2019-06-08T02:18:36.392Z,14.20
2019-06-08T02:19:28.397Z,14.15
2019-06-08T02:20:31.318Z,13.75
2019-06-08T02:21:34.939Z,12.93
2019-06-08T02:22:39.269Z,14.28
2019-06-08T02:23:42.292Z,13.20
2019-06-08T02:24:45.210Z,13.53
2019-06-08T02:25:48.205Z,14.63
2019-06-08T02:26:51.121Z,14.07
2019-06-08T02:27:54.341Z,13.37
2019-06-08T02:28:57.251Z,13.53
2019-06-08T02:30:00.170Z,13.72
2019-06-08T02:31:03.156Z,12.00
2019-06-08T02:32:06.066Z,12.40
2019-06-08T02:33:08.972Z,12.37
2019-06-08T02:34:11.879Z,11.83
2019-06-08T02:35:14.983Z,13.00
2019-06-08T02:36:17.930Z,13.87
2019-06-08T02:37:20.818Z,12.50
2019-06-08T02:38:23.718Z,12.23
2019-06-08T02:39:26.644Z,13.40
2019-06-08T02:40:30.835Z,12.80
2019-06-08T02:41:35.298Z,13.20
2019-06-08T02:42:38.234Z,13.05
2019-06-08T02:43:41.136Z,13.80
2019-06-08T02:44:44.049Z,14.00
2019-06-08T02:45:47.008Z,14.98
2019-06-08T02:46:49.946Z,14.40
2019-06-08T02:47:52.852Z,15.35
2019-06-08T02:49:04.281Z,15.13
2019-06-08T02:50:01.462Z,15.40
2019-06-08T02:51:06.253Z,17.05
2019-06-08T02:52:09.929Z,15.93
2019-06-08T02:53:13.242Z,16.07
2019-06-08T02:54:16.580Z,15.18
2019-06-08T02:55:20.428Z,15.63
2019-06-08T02:56:24.220Z,15.95
2019-06-08T02:57:29.141Z,15.63
2019-06-08T02:58:34.401Z,15.85
2019-06-08T02:59:40.554Z,16.42
2019-06-08T03:00:44.614Z,16.90
2019-06-08T03:01:49.126Z,16.85
2019-06-08T03:02:52.874Z,16.02
2019-06-08T03:03:56.380Z,17.05
2019-06-08T03:05:01.825Z,16.37
2019-06-08T03:06:04.942Z,17.57
2019-06-08T03:07:09.439Z,16.27
2019-06-08T03:08:12.363Z,16.30
2019-06-08T03:09:17.469Z,16.67
2019-06-08T03:10:20.387Z,16.60
2019-06-08T03:11:25.040Z,18.00
2019-06-08T03:12:27.969Z,17.62
2019-06-08T03:13:31.661Z,15.43
2019-06-08T03:14:39.493Z,15.23
2019-06-08T03:15:43.754Z,16.95
2019-06-08T03:16:46.801Z,17.23
2019-06-08T03:17:49.698Z,15.83
2019-06-08T03:18:52.617Z,15.75
2019-06-08T03:19:55.513Z,16.10
2019-06-08T03:20:58.417Z,15.90
2019-06-08T03:22:01.338Z,16.48
2019-06-08T03:23:04.356Z,16.57
2019-06-08T03:24:07.274Z,15.88
2019-06-08T03:25:10.285Z,16.65
2019-06-08T03:26:13.218Z,16.12
2019-06-08T03:27:16.124Z,15.85
2019-06-08T03:28:19.029Z,17.30
2019-06-08T03:29:21.842Z,16.35
2019-06-08T03:30:24.762Z,17.45
2019-06-08T03:31:27.697Z,16.02
2019-06-08T03:32:30.606Z,16.55
2019-06-08T03:33:37.871Z,17.82
2019-06-08T03:34:43.057Z,17.50
2019-06-08T03:35:52.714Z,17.75
2019-06-08T03:36:55.406Z,18.15
2019-06-08T03:37:52.421Z,17.75
2019-06-08T03:38:55.332Z,19.07
2019-06-08T03:39:58.239Z,18.17
2019-06-08T03:41:01.143Z,20.17
2019-06-08T03:42:04.104Z,20.02
2019-06-08T03:43:06.907Z,20.20
2019-06-08T03:44:09.829Z,18.95
2019-06-08T03:45:13.022Z,20.82
2019-06-08T03:46:15.918Z,19.52
2019-06-08T03:47:18.869Z,20.62
2019-06-08T03:48:21.777Z,21.87
2019-06-08T03:49:40.972Z,20.75
2019-06-08T03:50:29.424Z,20.00
2019-06-08T03:51:35.244Z,20.23
2019-06-08T03:52:37.880Z,20.82
2019-06-08T03:53:42.612Z,20.10
2019-06-08T03:54:47.045Z,20.43
2019-06-08T03:55:50.986Z,19.50
2019-06-08T03:56:53.914Z,20.05
2019-06-08T03:57:56.814Z,20.80
2019-06-08T03:58:59.905Z,19.70
2019-06-08T04:00:12.575Z,19.98
2019-06-08T04:01:09.175Z,20.35
2019-06-08T04:02:12.068Z,19.25
2019-06-08T04:03:15.001Z,18.35
2019-06-08T04:04:17.899Z,19.07
2019-06-08T04:05:20.821Z,18.40
2019-06-08T04:06:23.730Z,17.90
2019-06-08T04:07:26.623Z,18.92
2019-06-08T04:08:29.539Z,17.87
2019-06-08T04:09:32.446Z,19.00
2019-06-08T04:10:35.269Z,16.77
2019-06-08T04:11:39.979Z,16.52
2019-06-08T04:12:44.248Z,18.07
2019-06-08T04:13:47.752Z,17.90
2019-06-08T04:14:50.617Z,17.10
2019-06-08T04:15:53.523Z,17.45
2019-06-08T04:16:56.446Z,17.55
2019-06-08T04:17:59.340Z,17.32
2019-06-08T04:19:02.239Z,16.30
2019-06-08T04:20:11.075Z,15.95
2019-06-08T04:21:10.136Z,15.83
2019-06-08T04:22:13.094Z,16.50
2019-06-08T04:23:15.997Z,15.65
2019-06-08T04:24:18.913Z,15.08
2019-06-08T04:25:21.825Z,15.10
2019-06-08T04:26:24.739Z,15.08
2019-06-08T04:27:27.699Z,16.17
2019-06-08T04:28:30.597Z,16.37
2019-06-08T04:29:33.490Z,16.27
2019-06-08T04:30:36.286Z,16.35
2019-06-08T04:31:39.675Z,14.50
2019-06-08T04:32:42.906Z,14.38
2019-06-08T04:33:46.519Z,14.80
2019-06-08T04:34:49.977Z,15.55
2019-06-08T04:35:53.006Z,15.98
2019-06-08T04:36:55.907Z,15.50
2019-06-08T04:37:58.876Z,15.25
2019-06-08T04:39:01.780Z,15.40
2019-06-08T04:40:07.955Z,14.83
2019-06-08T04:41:10.854Z,14.60
2019-06-08T04:42:13.765Z,14.70
2019-06-08T04:43:16.774Z,13.95
2019-06-08T04:44:19.666Z,13.68
2019-06-08T04:45:22.587Z,14.83
2019-06-08T04:46:25.497Z,15.48
2019-06-08T04:47:28.424Z,13.75
2019-06-08T04:48:31.397Z,14.80
2019-06-08T04:49:34.309Z,15.18
2019-06-08T04:50:38.640Z,14.15
2019-06-08T04:51:42.483Z,15.25
2019-06-08T04:52:47.199Z,13.98
2019-06-08T04:53:50.091Z,16.00
2019-06-08T04:54:53.012Z,14.25
2019-06-08T04:55:55.941Z,14.20
2019-06-08T04:56:58.861Z,13.25
2019-06-08T04:58:01.792Z,14.18
2019-06-08T04:59:04.713Z,15.15
2019-06-08T05:00:11.929Z,14.03
2019-06-08T05:01:13.126Z,15.78
2019-06-08T05:02:16.077Z,13.90
2019-06-08T05:03:18.985Z,14.28
2019-06-08T05:04:22.956Z,13.38
2019-06-08T05:05:25.877Z,14.90
2019-06-08T05:06:28.698Z,13.53
2019-06-08T05:07:31.601Z,13.25
2019-06-08T05:08:34.574Z,13.40
2019-06-08T05:09:38.954Z,12.82
2019-06-08T05:10:43.246Z,13.20
2019-06-08T05:11:47.440Z,13.13
2019-06-08T05:12:50.465Z,13.38
2019-06-08T05:13:53.383Z,13.53
2019-06-08T05:14:56.346Z,12.25
2019-06-08T05:16:00.257Z,14.05
2019-06-08T05:17:03.273Z,14.15
2019-06-08T05:18:06.209Z,14.05
2019-06-08T05:19:09.197Z,13.48
2019-06-08T05:20:13.941Z,12.98
2019-06-08T05:21:16.861Z,13.38
2019-06-08T05:22:19.809Z,12.80
2019-06-08T05:23:22.738Z,12.82
2019-06-08T05:24:25.634Z,12.93
2019-06-08T05:25:28.572Z,12.20
2019-06-08T05:26:31.551Z,11.88
2019-06-08T05:27:34.506Z,12.45
2019-06-08T05:28:37.430Z,11.53
2019-06-08T05:29:41.257Z,12.30
2019-06-08T05:30:45.194Z,12.45
2019-06-08T05:31:49.621Z,11.05
2019-06-08T05:32:52.617Z,11.65
2019-06-08T05:33:55.565Z,12.68
2019-06-08T05:34:58.465Z,12.45
2019-06-08T05:36:01.273Z,12.23
2019-06-08T05:37:04.185Z,12.53
2019-06-08T05:38:08.076Z,12.90
2019-06-08T05:39:10.993Z,11.28
2019-06-08T05:40:14.571Z,12.70
2019-06-08T05:41:18.477Z,11.33
2019-06-08T05:42:21.385Z,10.72
2019-06-08T05:43:24.517Z,10.80
2019-06-08T05:44:27.521Z,11.63
2019-06-08T05:45:30.460Z,11.60
2019-06-08T05:46:33.373Z,11.53
2019-06-08T05:47:36.276Z,10.93
2019-06-08T05:48:39.749Z,11.90
2019-06-08T05:49:43.691Z,11.38
2019-06-08T05:51:00.552Z,11.75
2019-06-08T05:51:51.422Z,10.65
2019-06-08T05:52:54.757Z,10.63
2019-06-08T05:53:57.690Z,11.60
2019-06-08T05:55:00.601Z,10.53
2019-06-08T05:56:03.559Z,9.95
2019-06-08T05:57:06.486Z,10.48
2019-06-08T05:58:09.393Z,10.35
2019-06-08T05:59:12.314Z,9.88
2019-06-08T06:00:15.722Z,10.48
2019-06-08T06:01:20.248Z,11.03
2019-06-08T06:02:23.098Z,9.70
2019-06-08T06:03:26.092Z,10.58
2019-06-08T06:04:29.030Z,10.50
2019-06-08T06:05:32.058Z,9.75
2019-06-08T06:06:34.902Z,10.28
2019-06-08T06:07:40.546Z,10.58
2019-06-08T06:08:44.621Z,9.50
2019-06-08T06:09:48.810Z,9.58
2019-06-08T06:10:51.735Z,9.53
2019-06-08T06:11:54.677Z,10.30
2019-06-08T06:12:57.573Z,10.00
2019-06-08T06:14:00.498Z,10.10
2019-06-08T06:15:04.120Z,10.40
2019-06-08T06:16:07.034Z,10.58
2019-06-08T06:17:10.051Z,10.40
2019-06-08T06:18:12.945Z,10.53
2019-06-08T06:19:15.877Z,10.37
2019-06-08T06:20:19.404Z,9.70
2019-06-08T06:21:22.333Z,9.67
2019-06-08T06:22:25.445Z,9.43
2019-06-08T06:23:28.363Z,8.83
2019-06-08T06:24:31.262Z,9.60
2019-06-08T06:25:34.160Z,9.48
2019-06-08T06:26:37.082Z,9.53
2019-06-08T06:27:41.278Z,9.30
2019-06-08T06:28:45.492Z,9.53
2019-06-08T06:29:49.784Z,9.43
2019-06-08T06:30:53.855Z,10.30
2019-06-08T06:31:57.756Z,9.80
2019-06-08T06:33:00.700Z,9.98
2019-06-08T06:34:03.737Z,9.88
2019-06-08T06:35:09.480Z,10.90
2019-06-08T06:36:12.369Z,9.83
2019-06-08T06:37:15.282Z,9.50
2019-06-08T06:38:18.241Z,8.80
2019-06-08T06:39:21.100Z,8.83
2019-06-08T06:40:24.011Z,10.03
2019-06-08T06:41:26.930Z,9.67
2019-06-08T06:42:29.863Z,10.00
2019-06-08T06:43:32.680Z,16.80
2019-06-08T06:44:35.562Z,15.70
2019-06-08T06:45:38.534Z,11.50
2019-06-08T06:46:41.864Z,9.67
2019-06-08T06:47:46.270Z,8.63
2019-06-08T06:48:50.356Z,9.10
2019-06-08T06:49:53.368Z,9.00
2019-06-08T06:50:56.249Z,8.93
2019-06-08T06:51:59.145Z,8.57
2019-06-08T06:53:02.126Z,9.27
2019-06-08T06:54:05.094Z,9.60
2019-06-08T06:55:08.501Z,9.07
2019-06-08T06:56:11.408Z,9.77
2019-06-08T06:57:14.201Z,9.43
2019-06-08T06:58:17.182Z,8.40
2019-06-08T06:59:20.081Z,9.43
2019-06-08T07:00:30.312Z,9.70
2019-06-08T07:01:33.443Z,9.40
2019-06-08T07:02:36.440Z,9.13
2019-06-08T07:03:39.443Z,9.60
2019-06-08T07:04:43.652Z,9.77
2019-06-08T07:05:47.782Z,9.00
2019-06-08T07:06:52.158Z,8.83
2019-06-08T07:07:55.305Z,8.90
2019-06-08T07:08:58.262Z,9.73
2019-06-08T07:10:01.192Z,9.40
2019-06-08T07:11:04.202Z,10.10
2019-06-08T07:12:07.085Z,9.60
2019-06-08T07:13:10.041Z,9.30
2019-06-08T07:14:13.279Z,10.30
2019-06-08T07:15:24.722Z,9.20
2019-06-08T07:16:27.755Z,9.70
2019-06-08T07:17:30.649Z,10.10
2019-06-08T07:18:33.617Z,9.23
2019-06-08T07:19:36.549Z,9.30
2019-06-08T07:20:42.246Z,9.90
2019-06-08T07:21:46.106Z,8.97
2019-06-08T07:22:50.143Z,9.33
2019-06-08T07:23:54.432Z,9.73
2019-06-08T07:24:58.661Z,9.57
2019-06-08T07:26:01.676Z,9.20
2019-06-08T07:27:07.444Z,8.70
2019-06-08T07:28:09.731Z,8.80
2019-06-08T07:29:12.621Z,8.67
2019-06-08T07:30:15.689Z,9.33
2019-06-08T07:31:18.573Z,8.93
2019-06-08T07:32:21.538Z,9.03
2019-06-08T07:33:24.493Z,8.93
2019-06-08T07:34:30.164Z,10.00
2019-06-08T07:35:33.286Z,8.43
2019-06-08T07:36:36.297Z,8.83
2019-06-08T07:37:39.202Z,9.40
2019-06-08T07:38:42.110Z,10.93
2019-06-08T07:39:45.023Z,11.53
2019-06-08T07:40:48.827Z,9.53
2019-06-08T07:41:54.109Z,8.83
2019-06-08T07:42:57.201Z,9.83
2019-06-08T07:44:00.092Z,10.60
2019-06-08T07:45:03.148Z,10.13
2019-06-08T07:46:06.067Z,11.43
2019-06-08T07:47:09.069Z,11.07
2019-06-08T07:48:12.012Z,8.77
2019-06-08T07:49:14.915Z,10.07
2019-06-08T07:50:17.913Z,9.30
2019-06-08T07:51:20.935Z,10.60
2019-06-08T07:52:23.820Z,8.37
2019-06-08T07:53:26.739Z,9.20
2019-06-08T07:54:29.666Z,8.57
2019-06-08T07:55:32.486Z,8.57
2019-06-08T07:56:35.554Z,10.87
2019-06-08T07:57:38.479Z,10.37
2019-06-08T07:58:41.482Z,8.40
2019-06-08T07:59:44.396Z,8.80
2019-06-08T08:00:47.288Z,7.60
2019-06-08T08:01:51.898Z,8.30
2019-06-08T08:02:54.781Z,8.47
2019-06-08T08:03:58.447Z,8.23
2019-06-08T08:05:01.398Z,7.57
2019-06-08T08:06:04.378Z,8.60
2019-06-08T08:07:07.220Z,7.90
2019-06-08T08:08:10.177Z,9.07
2019-06-08T08:09:13.079Z,10.40
2019-06-08T08:10:16.823Z,9.83
2019-06-08T08:11:19.664Z,9.73
2019-06-08T08:12:22.604Z,7.70
2019-06-08T08:13:25.505Z,8.53
2019-06-08T08:14:28.410Z,9.47
2019-06-08T08:15:31.301Z,9.50
2019-06-08T08:16:34.201Z,12.57
2019-06-08T08:17:37.294Z,10.40
2019-06-08T08:18:40.185Z,9.03
2019-06-08T08:19:43.096Z,6.97
2019-06-08T08:20:45.996Z,7.80
2019-06-08T08:21:51.885Z,7.37
2019-06-08T08:22:57.570Z,8.53
2019-06-08T08:24:01.135Z,8.13
2019-06-08T08:25:04.977Z,7.47
2019-06-08T08:26:07.920Z,10.13
2019-06-08T08:27:10.825Z,8.07
2019-06-08T08:28:13.740Z,9.70
2019-06-08T08:29:17.690Z,8.20
2019-06-08T08:30:21.243Z,8.33
2019-06-08T08:31:24.184Z,8.50
2019-06-08T08:32:28.348Z,10.93
2019-06-08T08:33:31.355Z,9.07
2019-06-08T08:34:34.241Z,8.07
2019-06-08T08:35:38.225Z,7.57
2019-06-08T08:36:41.142Z,8.43
2019-06-08T08:37:44.053Z,11.50
2019-06-08T08:38:47.794Z,8.83
2019-06-08T08:39:51.870Z,8.17
2019-06-08T08:40:56.140Z,8.30
2019-06-08T08:42:04.747Z,8.07
2019-06-08T08:43:04.146Z,8.70
2019-06-08T08:44:07.975Z,8.93
2019-06-08T08:45:11.780Z,8.23
2019-06-08T08:46:14.699Z,8.53
2019-06-08T08:47:18.703Z,8.07
2019-06-08T08:48:28.226Z,9.27
2019-06-08T08:49:28.096Z,8.63
2019-06-08T08:50:31.066Z,8.40
2019-06-08T08:51:33.994Z,8.67
2019-06-08T08:52:40.438Z,8.63
2019-06-08T08:53:41.659Z,8.40
2019-06-08T08:54:44.572Z,8.30
2019-06-08T08:55:48.505Z,8.40
2019-06-08T08:56:54.745Z,9.63
2019-06-08T08:57:57.073Z,9.60
2019-06-08T08:59:02.700Z,9.77
2019-06-08T09:00:08.511Z,9.07
2019-06-08T09:01:11.219Z,9.47
2019-06-08T09:02:14.118Z,8.43
2019-06-08T09:03:29.052Z,8.63
2019-06-08T09:04:21.837Z,8.13
2019-06-08T09:05:24.794Z,7.97
2019-06-08T09:06:28.074Z,7.43
2019-06-08T09:07:31.055Z,7.47
2019-06-08T09:08:33.853Z,8.00
2019-06-08T09:09:38.732Z,7.73
2019-06-08T09:10:41.493Z,8.30
2019-06-08T09:11:48.158Z,8.70
2019-06-08T09:12:52.130Z,8.60
2019-06-08T09:13:55.692Z,9.20
2019-06-08T09:15:01.849Z,9.43
2019-06-08T09:16:04.627Z,10.70
2019-06-08T09:17:08.531Z,12.50
2019-06-08T09:18:12.741Z,9.60
2019-06-08T09:19:20.613Z,8.60
2019-06-08T09:20:20.495Z,8.47
2019-06-08T09:21:24.446Z,10.67
2019-06-08T09:22:28.154Z,7.93
2019-06-08T09:23:32.321Z,8.10
2019-06-08T09:24:35.307Z,7.43
2019-06-08T09:25:40.741Z,7.17
2019-06-08T09:26:42.889Z,7.60
2019-06-08T09:27:48.093Z,7.70
2019-06-08T09:28:51.672Z,7.60
2019-06-08T09:29:57.427Z,10.17
2019-06-08T09:31:02.304Z,13.77
2019-06-08T09:32:04.757Z,10.10
2019-06-08T09:33:08.043Z,7.97
2019-06-08T09:34:15.293Z,7.77
2019-06-08T09:35:18.695Z,7.90
2019-06-08T09:36:20.578Z,7.43
2019-06-08T09:37:23.488Z,7.17
2019-06-08T09:38:28.509Z,7.10
2019-06-08T09:39:31.269Z,7.73
2019-06-08T09:40:34.169Z,6.77
2019-06-08T09:41:38.014Z,7.40
2019-06-08T09:42:40.961Z,7.50
2019-06-08T09:43:43.874Z,6.63
2019-06-08T09:44:48.275Z,6.73
2019-06-08T09:45:53.709Z,7.07
2019-06-08T09:46:58.750Z,7.10
2019-06-08T09:48:05.541Z,7.00
2019-06-08T09:49:11.672Z,6.83
2019-06-08T09:50:13.565Z,6.93
2019-06-08T09:51:18.509Z,6.70
2019-06-08T09:52:21.763Z,6.03
2019-06-08T09:53:34.163Z,5.80
2019-06-08T09:54:29.437Z,5.53
2019-06-08T09:55:32.526Z,6.00
2019-06-08T09:56:37.795Z,6.47
2019-06-08T09:57:40.125Z,6.10
2019-06-08T09:58:43.050Z,15.70
2019-06-08T09:59:48.071Z,6.03
2019-06-08T10:00:50.588Z,5.80
2019-06-08T10:01:54.177Z,4.97
2019-06-08T10:03:01.316Z,4.90
2019-06-08T10:04:04.077Z,7.13
2019-06-08T10:05:07.576Z,6.13
2019-06-08T10:06:12.557Z,7.43
2019-06-08T10:07:15.186Z,6.67
2019-06-08T10:08:20.549Z,6.50
2019-06-08T10:09:23.010Z,6.73
2019-06-08T10:10:25.934Z,6.43
2019-06-08T10:11:28.829Z,6.53
2019-06-08T10:12:31.798Z,6.50
2019-06-08T10:13:34.731Z,6.93
2019-06-08T10:14:38.126Z,7.50
2019-06-08T10:15:41.307Z,8.73
2019-06-08T10:16:44.197Z,7.40
2019-06-08T10:17:47.637Z,7.33
2019-06-08T10:18:51.474Z,6.67
2019-06-08T10:19:54.709Z,6.60
2019-06-08T10:21:00.606Z,6.83
2019-06-08T10:22:03.022Z,6.60
2019-06-08T10:23:24.187Z,6.40
2019-06-08T10:24:10.683Z,6.63
2019-06-08T10:25:13.619Z,6.70
2019-06-08T10:26:17.844Z,7.00
2019-06-08T10:27:20.845Z,6.63
2019-06-08T10:28:23.741Z,7.23
2019-06-08T10:29:26.642Z,7.40
2019-06-08T10:30:30.373Z,6.90
2019-06-08T10:31:39.786Z,7.60
2019-06-08T10:32:39.110Z,6.80
2019-06-08T10:33:42.045Z,6.50
2019-06-08T10:34:44.960Z,6.23
2019-06-08T10:35:48.115Z,6.40
2019-06-08T10:36:51.053Z,6.50
2019-06-08T10:37:55.753Z,6.83
2019-06-08T10:39:01.631Z,8.50
2019-06-08T10:40:06.502Z,6.90
2019-06-08T10:41:16.180Z,6.10
2019-06-08T10:42:14.086Z,6.07
2019-06-08T10:43:17.515Z,5.83
2019-06-08T10:44:21.759Z,6.20
2019-06-08T10:45:24.753Z,6.47
2019-06-08T10:46:27.702Z,6.87
2019-06-08T10:47:30.613Z,6.67
2019-06-08T10:48:33.809Z,7.07
2019-06-08T10:49:38.436Z,6.83
2019-06-08T10:50:42.234Z,6.07
2019-06-08T10:51:45.234Z,6.10
2019-06-08T10:52:48.130Z,6.53
2019-06-08T10:53:53.070Z,6.50
2019-06-08T10:54:57.517Z,6.53
2019-06-08T10:56:01.744Z,6.47
2019-06-08T10:57:07.383Z,6.37
2019-06-08T10:58:11.336Z,6.63
2019-06-08T10:59:14.457Z,6.73
2019-06-08T11:00:24.118Z,6.77
2019-06-08T11:01:28.127Z,5.87
2019-06-08T11:02:30.969Z,5.97
2019-06-08T11:03:33.890Z,5.37
2019-06-08T11:04:38.759Z,6.37
2019-06-08T11:05:41.501Z,6.07
2019-06-08T11:06:44.400Z,5.40
2019-06-08T11:07:48.017Z,6.13
2019-06-08T11:08:51.002Z,6.07
2019-06-08T11:09:54.897Z,6.83
2019-06-08T11:10:59.459Z,6.10
2019-06-08T11:12:05.230Z,5.67
2019-06-08T11:13:14.536Z,6.23
2019-06-08T11:14:13.758Z,5.93
2019-06-08T11:15:16.818Z,6.80
2019-06-08T11:16:19.722Z,5.97
2019-06-08T11:17:22.622Z,6.50
2019-06-08T11:18:25.592Z,6.73
2019-06-08T11:19:28.509Z,7.00
2019-06-08T11:20:31.553Z,5.97
2019-06-08T11:21:38.607Z,6.00
2019-06-08T11:22:41.657Z,5.83
2019-06-08T11:23:44.617Z,6.00
2019-06-08T11:24:48.578Z,5.93
2019-06-08T11:25:51.605Z,6.00
2019-06-08T11:26:54.515Z,6.03
2019-06-08T11:27:58.668Z,6.23
2019-06-08T11:29:02.925Z,5.90
2019-06-08T11:30:17.935Z,6.83
2019-06-08T11:31:15.974Z,5.80
2019-06-08T11:32:18.348Z,6.00
2019-06-08T11:33:21.410Z,6.50
2019-06-08T11:34:24.388Z,6.07
2019-06-08T11:35:28.654Z,6.20
2019-06-08T11:36:31.658Z,6.10
2019-06-08T11:37:34.541Z,5.93
2019-06-08T11:38:38.240Z,5.80
2019-06-08T11:39:41.281Z,6.67
2019-06-08T11:40:44.186Z,7.77
2019-06-08T11:41:48.462Z,15.60
2019-06-08T11:42:51.494Z,5.87
2019-06-08T11:43:54.394Z,6.27
2019-06-08T11:44:58.681Z,6.50
2019-06-08T11:46:02.582Z,6.20
2019-06-08T11:47:07.364Z,6.37
2019-06-08T11:48:10.946Z,6.13
2019-06-08T11:49:15.153Z,5.80
2019-06-08T11:50:42.119Z,5.43
2019-06-08T11:51:47.665Z,6.13
2019-06-08T11:52:50.189Z,5.77
2019-06-08T11:53:53.104Z,6.57
2019-06-08T11:54:57.323Z,8.80
2019-06-08T11:56:02.688Z,5.93
2019-06-08T11:57:08.391Z,6.27
2019-06-08T11:58:13.569Z,6.23
2019-06-08T11:59:16.263Z,5.90
2019-06-08T12:00:37.888Z,5.93
2019-06-08T12:01:40.892Z,5.70
2019-06-08T12:02:43.813Z,5.77
2019-06-08T12:03:48.341Z,5.47
2019-06-08T12:04:51.305Z,6.10
2019-06-08T12:05:54.427Z,5.77
2019-06-08T12:06:58.417Z,5.43
2019-06-08T12:08:02.864Z,5.90
2019-06-08T12:09:09.065Z,5.67
2019-06-08T12:10:12.703Z,5.77
2019-06-08T12:11:19.804Z,5.40
2019-06-08T12:12:21.555Z,5.73
2019-06-08T12:13:24.630Z,5.87
2019-06-08T12:14:27.508Z,19.63
2019-06-08T12:15:30.477Z,6.43
2019-06-08T12:16:33.424Z,6.20
2019-06-08T12:17:36.376Z,5.50
2019-06-08T12:18:40.329Z,6.23
2019-06-08T12:19:43.462Z,6.10
2019-06-08T12:20:48.681Z,7.20
2019-06-08T12:21:51.373Z,6.63
2019-06-08T12:22:54.257Z,5.47
2019-06-08T12:23:57.518Z,5.63
2019-06-08T12:25:00.449Z,5.53
2019-06-08T12:26:04.061Z,6.47
2019-06-08T12:27:14.191Z,6.67
2019-06-08T12:28:12.591Z,7.40
2019-06-08T12:29:16.660Z,8.37
2019-06-08T12:30:25.890Z,8.83
2019-06-08T12:31:25.061Z,8.47
2019-06-08T12:32:27.941Z,8.50
2019-06-08T12:33:30.905Z,9.03
2019-06-08T12:34:33.764Z,8.90
2019-06-08T12:35:36.667Z,9.60
2019-06-08T12:36:39.619Z,10.00
2019-06-08T12:37:42.557Z,9.97
2019-06-08T12:38:45.634Z,9.00
2019-06-08T12:39:48.656Z,9.10
2019-06-08T12:40:51.686Z,9.37
2019-06-08T12:41:54.744Z,8.93
2019-06-08T12:42:59.633Z,8.73
2019-06-08T12:44:02.531Z,8.57
2019-06-08T12:45:07.126Z,8.80
2019-06-08T12:46:13.585Z,8.30
2019-06-08T12:47:24.242Z,8.37
2019-06-08T12:48:25.112Z,9.10
2019-06-08T12:49:26.889Z,8.70
2019-06-08T12:50:29.805Z,8.63
2019-06-08T12:51:32.798Z,8.10
2019-06-08T12:52:35.767Z,13.47
2019-06-08T12:53:38.699Z,8.87
2019-06-08T12:54:54.137Z,8.37
2019-06-08T12:55:47.590Z,9.10
2019-06-08T12:56:50.706Z,9.27
2019-06-08T12:57:53.679Z,7.73
2019-06-08T12:58:57.969Z,8.47
2019-06-08T13:00:01.180Z,8.20
2019-06-08T13:01:05.082Z,8.50
2019-06-08T13:02:12.939Z,9.27
2019-06-08T13:03:14.447Z,9.00
2019-06-08T13:04:18.752Z,8.10
2019-06-08T13:05:23.038Z,8.50
2019-06-08T13:06:28.315Z,8.50
2019-06-08T13:07:31.342Z,8.40
2019-06-08T13:08:34.352Z,8.13
2019-06-08T13:09:38.133Z,8.70
2019-06-08T13:10:41.676Z,8.67
2019-06-08T13:11:44.603Z,10.80
2019-06-08T13:12:48.051Z,8.03
2019-06-08T13:13:51.937Z,8.47
2019-06-08T13:14:54.879Z,20.37
2019-06-08T13:15:58.086Z,8.10
2019-06-08T13:17:01.288Z,7.93
2019-06-08T13:18:04.198Z,8.33
2019-06-08T13:19:09.230Z,8.07
2019-06-08T13:20:21.443Z,7.47
2019-06-08T13:21:31.578Z,7.70
2019-06-08T13:22:28.982Z,7.93
2019-06-08T13:23:30.374Z,7.90
2019-06-08T13:24:33.314Z,7.90
2019-06-08T13:25:42.827Z,7.97
2019-06-08T13:26:40.996Z,8.37
2019-06-08T13:27:43.948Z,7.53
2019-06-08T13:28:46.862Z,7.47
2019-06-08T13:29:49.801Z,7.60
2019-06-08T13:30:52.733Z,22.00
2019-06-08T13:31:55.644Z,8.10
2019-06-08T13:32:58.541Z,7.40
2019-06-08T13:34:01.444Z,7.17
2019-06-08T13:35:04.717Z,7.67
2019-06-08T13:36:07.674Z,8.60
2019-06-08T13:37:10.676Z,8.20
2019-06-08T13:38:14.710Z,7.77
2019-06-08T13:39:20.131Z,7.90
2019-06-08T13:40:23.734Z,8.23
2019-06-08T13:41:29.747Z,8.13
2019-06-08T13:42:31.406Z,8.13
2019-06-08T13:43:34.354Z,8.40
2019-06-08T13:44:37.824Z,8.20
2019-06-08T13:45:40.765Z,8.00
2019-06-08T13:46:43.672Z,8.03
2019-06-08T13:47:50.265Z,7.87
2019-06-08T13:48:51.369Z,7.87
2019-06-08T13:49:54.363Z,8.27
2019-06-08T13:50:59.154Z,7.73
2019-06-08T13:52:02.029Z,8.33